Hartford, Connecticut
Traffic Map
Current Weather Conditions
Hartford, Connecticut
Overcast
Overcast
34°
Feels Like: 29°
Wind Chill: 29° Ceiling: 10000
Heat Index: 34° Visibility: 10mi
Dew Point: 27° Wind: 6mph
Humidity: 75% Direction: 170° (S)
Pressure: 30.46in Gusts: 0mph
Raw Report DataKHFD 241153Z 17005KT 10SM OVC100 01/M03 A3046 RMK AO2 SLP314 T00111028 10011 21039 58008
Traffic Incident Summary
Active as of:
Severity:
Category:
InformationThere was an issue retrieving the traffic information for this location. Please try a different location or try again shortly.
Advertisements
Track Severe Weather on mobile